logo
Search for airport 
image banner adimage banner adimage banner ad
image banner ad

ESSB - Stockholm/Bromma

Located in Stockholm, Sweden

ICAO - ESSB, IATA - BMA

Data provided by Airmate  

General information

Coordinates: N59°21'16" E17°56'32"
Elevation is 47 feet MSL.
Magnetic variation is +6.0° East
View others Airports in Stockholms län

Operational data

Special qualification required
Current time UTC:
Current local time:
Weather
METAR: ESSB 200720Z 32008KT 280V340 9999 -SN FEW013 SCT019 BKN045 M00/M03 Q1010
TAF: TAF ESSB 200530Z 2006/2015 36007KT 9999 -SN SCT020 BKN040
View NOTAMs / SUP AIP / TFR affecting this airport [VIEW]
Communications frequencies: [VIEW]

Runways:

RWY identifierQFULength (ft)Width (ft)SurfaceLDA (ft)
12125°5472148ASPH5472
30305°5472148ASPH5472

Airport contact information

Address: Stockholm Sweden

Other aviation service providers

Flight schools

Braathens Regional Airlines Ab

Braathens Regional Airlines Ab

Aviation club (not for profit)

Sa Flygklubb

Sa Flygklubb
lars.sveding@gmail.com+46703424527
+46703424527

Stockholms Flygklubb

Stockholms Flygklubb
info@stockholmsflygklubb.se+468283246
+46709625133

Tekniska Högskolans Flygklubb

Tekniska Högskolans Flygklubb
bo.boivie@gmail.com+46704200007
+46704200007

Satellite view of ESSB